Pagina principale
METAR-TAF:

METAR-TAF

Aeroporti :

Aeroporto di Kiev-Žuljany

Kiev, Ucraina

latitudine: 50-24N, longitudine: 030-34E, altezza: 166 m

Osservazione

Il bollettino è stato emesso 32 minuti fa, alle 17:30 UTC
Vento 4 kt da sud/sud-ovest, variando fra sud/sud-est e sud-ovest
Temperature 25°C
Umidità 54%
Pressione 1018 hPa
Visibilità 10 km o più
nessuna nube inferiore a 1500 m e nessun cumulonembo

METAR: UKKK 101730Z 20002MPS 160V220 CAVOK 25/15 Q1018 R26/70D NOSIG

Ora: 21:02 (18:02 UTC)

Previsione

Il bollettino è stato emesso 1 ora e 1 minuti fa, alle 17:01 UTC
Previsione valida dal 10 alle 18 UTC al 11 alle 18 UTC
Vento 6 kt da sud con raffiche fino a 16 kt
Visibilità 10 km o più
Nubi sparse ad un'altezza di 3000 ft

TAF: UKKK 101701Z 1018/1118 18003G08MPS 9999 SCT030 TX30/1112Z TN15/1102Z

Osservazioni e previsioni meteorologiche di più di 4000 aeroporti (messaggi METAR e TAF).

Le stazioni disponibili sono rappresentate dai dischi gialli e rossi sulla carta.

Puntare il mouse per vedere il nome della stazione.

Clicca sopra per visualizzare le osservazioni e previsioni meteorologiche.

Per cambiare la mappa : fare clic sui pulsanti verdi con una croce nera per ingrandire, il pulsante verde con un trattino per diminuire, o sulla freccia verde per le mappe adiacenti.


METAR-TAF: